Goteborg Save Air Force Base, Sweden

2:45 PM CEST on August 20, 2014 (GMT +0200)
Save Air Base | Change Station
CLOSE
Current Station
Airport
Location: Goteborg Save AFB,
Elevation: 59 ft
Nearby Weather Stations

Elev 59 ft 57.77 °N, 11.87 °E | Updated 25 minutes ago

Mostly Cloudy
Mostly Cloudy
63 °F
Feels Like 63 °F
N
20
Wind Variable Wind from West

Today
High -- | Low -- °F
--% Chance of Precip.
Yesterday
High -- | Low -- °F
Precip. -- in
5:46 AM 8:43 PM
Waning Crescent, 22% visible
Pressure 29.50 in
Visibility 6.2 miles
Clouds Mostly Cloudy 2300 ft
Dew Point 52 °F
Humidity 68%
Rainfall 0.00 in
Snow Depth Not available.
UV 3 out of 12
Pollen Not available.
Air Quality Not available.
Flu Activity Not available.
METAR ESGP 201220Z 27017KT 9999 BKN023 17/11 Q0999

More Conditions Fewer Conditions

Pressure 29.50 in
Visibility 6.2 miles
Clouds Mostly Cloudy 2300 ft
Dew Point 52 °F
Humidity 68%
Rainfall 0.00 in
Snow Depth Not available.
UV 3 out of 12
Pollen Not available.
Air Quality Not available.
Flu Activity Not available.
METAR ESGP 201220Z 27017KT 9999 BKN023 17/11 Q0999

More Conditions Fewer Conditions

10-Day Weather Forecast

Almanac

Astronomy

Aug. 20, 2014 Rise Set
Actual Time 5:46 AM CEST 8:43 PM CEST
Civil Twilight 5:01 AM CEST 9:28 PM CEST
Nautical Twilight 4:01 AM CEST 10:27 PM CEST
Astronomical Twilight 2:31 AM CEST 11:54 PM CEST
Moon 12:48 AM CEST 5:39 PM CEST
Length of Visible Light 16h 26m
Length of Day
14h 56m
Tomorrow will be 4m 46s shorter.
Waning Crescent, 22% of the Moon is Illuminated
Today
Waning Crescent
Aug 25
New
Sep 2
First Quarter
Sep 8
Full
Sep 15
Last Quarter

Yesterday's Extremes

Country Highs Country Lows

Community

WunderPhotos

Upload Photos

1,745,618 photos uploaded!

Nearby

Snow Depth

Not available.

Earthquake Activity

City Distance Mag. Time & Date
No recent earthquake activity has been reported nearby.
Minimum magnitude displayed is 2.5.

Coastal Water Temperatures

Place Temperature
No Stations Reporting

Nearby Weather Stations